Fuji Maru — JD2030 — position and weather

sailwx.info

Track history (hours):
 
Tides and Currents Weather Stations Pressure Air Temp Water Temp Dewpoint Dewpoint Depression Visibility Wind Speed Wind Dir Waves Ship Positions

Fuji Maru

Last reported at 2016-Aug-30 16:33 UTC. Time now 2016-Aug-30 17:04 UTC.
Position N 35°39' E 139°46'.

Length 38 m; draft 4.4 m.

Type: Tug. MMSI: 431001102.

Date/timePositionNaut miles runAvg speedWind from/ knotsBaromVisibWave heightAir tempDewpointWater temp
2016-Aug-30 16:33N 35°39' E 139°46'0 0.0
2016-Aug-30 15:27N 35°39' E 139°46'0 0.0
2016-Aug-30 14:27N 35°39' E 139°46'0 0.0
2016-Aug-30 13:33N 35°39' E 139°46'0 0.0
2016-Aug-30 12:33N 35°39' E 139°46'0 0.0
2016-Aug-30 11:33N 35°39' E 139°46'0 0.0
2016-Aug-30 10:33N 35°39' E 139°46'0 0.0
2016-Aug-30 09:27N 35°39' E 139°46'0 0.0
2016-Aug-30 08:27N 35°39' E 139°46'0 0.0
2016-Aug-30 07:33N 35°39' E 139°46'0 0.0
2016-Aug-30 06:33N 35°39' E 139°46'0 0.0
2016-Aug-30 05:27N 35°39' E 139°46'1 1.0
2016-Aug-30 04:32N 35°39' E 139°47'1 0.7
2016-Aug-30 03:18N 35°39' E 139°46'0 0.0
2016-Aug-30 02:33N 35°39' E 139°46'0 0.0
2016-Aug-30 01:27N 35°39' E 139°46'0 0.0
2016-Aug-30 00:27N 35°39' E 139°46'0 0.1
2016-Aug-29 23:15N 35°39' E 139°46'0 0.1
2016-Aug-29 22:24N 35°39' E 139°46'0 0.0
2016-Aug-29 21:21N 35°39' E 139°46'0 0.0
2016-Aug-29 20:33N 35°39' E 139°46'0 0.0
2016-Aug-29 19:30N 35°39' E 139°46'0 0.0
2016-Aug-29 18:24N 35°39' E 139°46'0 0.0
2016-Aug-29 17:33N 35°39' E 139°46'0 0.0
2016-Aug-29 16:30N 35°39' E 139°46'0 0.0
2016-Aug-29 15:33N 35°39' E 139°46'0 0.0
2016-Aug-29 14:33N 35°39' E 139°46'0 0.0
2016-Aug-29 13:30N 35°39' E 139°46'0 0.0
2016-Aug-29 12:30N 35°39' E 139°46'0 0.0
2016-Aug-29 11:30N 35°39' E 139°46'0 0.0
2016-Aug-29 10:33N 35°39' E 139°46'0 0.0
2016-Aug-29 09:33N 35°39' E 139°46'0 0.0
2016-Aug-29 08:33N 35°39' E 139°46'0 0.0
2016-Aug-29 07:21N 35°39' E 139°46'0 0.1
2016-Aug-29 06:33N 35°39' E 139°46'0 0.0
2016-Aug-29 05:33N 35°39' E 139°46'0 0.0
2016-Aug-29 04:30N 35°39' E 139°46'0 0.0
2016-Aug-29 03:33N 35°39' E 139°46'0 0.0
2016-Aug-29 02:33N 35°39' E 139°46'0 0.0
2016-Aug-29 01:31N 35°39' E 139°46'0 0.0
2016-Aug-29 00:31N 35°39' E 139°46'3 2.7
2016-Aug-28 23:30N 35°36' E 139°46'1 1.2
2016-Aug-28 22:33N 35°35' E 139°47'3 3.3
2016-Aug-28 21:33N 35°33' E 139°51'4 4.1
2016-Aug-28 20:33N 35°36' E 139°47'2 2.0
2016-Aug-28 19:33N 35°38' E 139°46'1 1.2
2016-Aug-28 18:33N 35°37' E 139°46'2 2.1
2016-Aug-28 17:33N 35°39' E 139°46'0 0.0
2016-Aug-28 16:33N 35°39' E 139°46'0 0.0
2016-Aug-28 15:33N 35°39' E 139°46'0 0.0
2016-Aug-28 14:33N 35°39' E 139°46'0 0.0
2016-Aug-28 13:33N 35°39' E 139°46'0 0.0
2016-Aug-28 12:33N 35°39' E 139°46'0 0.0
2016-Aug-28 11:33N 35°39' E 139°46'0 0.0
2016-Aug-28 10:33N 35°39' E 139°46'0 0.0
2016-Aug-28 09:33N 35°39' E 139°46'0 0.0
2016-Aug-28 08:33N 35°39' E 139°46'0 0.0
2016-Aug-28 07:33N 35°39' E 139°46'0 0.0
2016-Aug-28 06:33N 35°39' E 139°46'0 0.0
2016-Aug-28 05:30N 35°39' E 139°46'0 0.0
2016-Aug-28 04:33N 35°39' E 139°46'0 0.0
2016-Aug-28 03:33N 35°39' E 139°46'0 0.0
2016-Aug-28 02:33N 35°39' E 139°46'0 0.0
2016-Aug-28 01:27N 35°39' E 139°46'0 0.1
2016-Aug-28 00:33N 35°39' E 139°46'0 0.0
2016-Aug-27 23:33N 35°39' E 139°46'0 0.0
2016-Aug-27 22:33N 35°39' E 139°46'0 0.0
2016-Aug-27 21:33N 35°39' E 139°46'0 0.0
2016-Aug-27 20:30N 35°39' E 139°46'0 0.0
2016-Aug-27 19:33N 35°39' E 139°46'0 0.0
2016-Aug-27 18:33N 35°39' E 139°46'0 0.0
2016-Aug-27 17:33N 35°39' E 139°46'0 0.0
2016-Aug-27 16:33N 35°39' E 139°46'0 0.0
2016-Aug-27 15:33N 35°39' E 139°46'0 0.0
2016-Aug-27 14:33N 35°39' E 139°46'0 0.0
2016-Aug-27 13:33N 35°39' E 139°46'0 0.0
2016-Aug-27 12:30N 35°39' E 139°46'0 0.0
2016-Aug-27 11:30N 35°39' E 139°46'0 0.0
2016-Aug-27 10:33N 35°39' E 139°46'0 0.0
2016-Aug-27 09:33N 35°39' E 139°46'0 0.0
2016-Aug-27 08:33N 35°39' E 139°46'0 0.0
2016-Aug-27 07:33N 35°39' E 139°46'0 0.0
2016-Aug-27 06:33N 35°39' E 139°46'0 0.0
2016-Aug-27 04:33N 35°39' E 139°46'0 0.0
2016-Aug-27 03:27N 35°39' E 139°46'0 0.0
2016-Aug-27 02:33N 35°39' E 139°46'0 0.0
2016-Aug-27 01:30N 35°39' E 139°46'0 0.0
2016-Aug-27 00:33N 35°39' E 139°46'0 0.0
2016-Aug-26 23:33N 35°39' E 139°46'0 0.0
2016-Aug-26 22:30N 35°39' E 139°46'0 0.0
2016-Aug-26 21:33N 35°39' E 139°46'0 0.0
2016-Aug-26 20:33N 35°39' E 139°46'0 0.0
2016-Aug-26 19:33N 35°39' E 139°46'0 0.0
2016-Aug-26 18:33N 35°39' E 139°46'3 2.6
2016-Aug-26 17:33N 35°36' E 139°46'2 1.8
2016-Aug-26 16:33N 35°38' E 139°46'0 0.0
2016-Aug-26 15:33N 35°38' E 139°46'0 0.0
2016-Aug-26 14:27N 35°38' E 139°46'2 1.7
2016-Aug-26 13:32N 35°37' E 139°47'1 1.3
2016-Aug-26 12:33N 35°35' E 139°47'0 0.0
2016-Aug-26 11:33N 35°35' E 139°47'0 0.0
2016-Aug-26 10:33N 35°35' E 139°47'1 1.0
2016-Aug-26 09:33N 35°36' E 139°47'3 2.7
2016-Aug-26 08:33N 35°39' E 139°46'0 0.0
2016-Aug-26 07:33N 35°39' E 139°46'0 0.0
2016-Aug-26 06:30N 35°39' E 139°46'0 0.0
2016-Aug-26 04:33N 35°39' E 139°46'0 0.0
2016-Aug-26 03:33N 35°39' E 139°46'0 0.0
2016-Aug-26 02:33N 35°39' E 139°46'0 0.0
2016-Aug-26 01:33N 35°39' E 139°46'0 0.0
2016-Aug-26 00:33N 35°39' E 139°46'1 0.7
2016-Aug-25 23:31N 35°39' E 139°47'2 1.8
2016-Aug-25 22:33N 35°37' E 139°46'4 3.9
2016-Aug-25 21:31N 35°34' E 139°49'2 2.5
2016-Aug-25 20:32N 35°35' E 139°47'1 1.1
2016-Aug-25 19:33N 35°36' E 139°46'2 2.4
2016-Aug-25 18:31N 35°39' E 139°46'0 0.0
2016-Aug-25 17:31N 35°39' E 139°46'0 0.0
2016-Aug-25 16:31N 35°39' E 139°46'0 0.0
2016-Aug-25 15:31N 35°39' E 139°46'0 0.0
2016-Aug-25 14:31N 35°39' E 139°46'0 0.0
2016-Aug-25 13:31N 35°39' E 139°46'0 0.0
2016-Aug-25 12:31N 35°39' E 139°46'0 0.0
2016-Aug-25 11:31N 35°39' E 139°46'0 0.0
2016-Aug-25 10:31N 35°39' E 139°46'0 0.0
2016-Aug-25 09:31N 35°39' E 139°46'0 0.0
2016-Aug-25 08:31N 35°39' E 139°46'0 0.0
2016-Aug-25 07:31N 35°39' E 139°46'0 0.0
2016-Aug-25 06:28N 35°39' E 139°46'0 0.0
2016-Aug-25 04:28N 35°39' E 139°46'1 1.1
2016-Aug-25 03:33N 35°38' E 139°46'5 4.7
2016-Aug-25 02:34N 35°34' E 139°49'3 2.5
2016-Aug-25 01:28N 35°36' E 139°47'0 0.0
2016-Aug-25 00:31N 35°36' E 139°47'0 0.0
2016-Aug-24 23:34N 35°36' E 139°47'0 0.4
2016-Aug-24 22:33N 35°36' E 139°47'2 2.4
2016-Aug-24 21:33N 35°34' E 139°49'5 5.1
2016-Aug-24 20:33N 35°39' E 139°46'0 0.0
2016-Aug-24 19:33N 35°39' E 139°46'0 0.0
2016-Aug-24 18:33N 35°39' E 139°46'0 0.0
2016-Aug-24 17:30N 35°39' E 139°46'0 0.0
2016-Aug-24 16:33N 35°39' E 139°46'0 0.0
2016-Aug-24 15:33N 35°39' E 139°46'0 0.0
2016-Aug-24 14:33N 35°39' E 139°46'0 0.0
2016-Aug-24 13:24N 35°39' E 139°46'0 0.0
2016-Aug-24 12:30N 35°39' E 139°46'0 0.0
2016-Aug-24 11:33N 35°39' E 139°46'0 0.0
2016-Aug-24 10:24N 35°39' E 139°46'2 2.5
2016-Aug-24 09:32N 35°37' E 139°46'2 1.7
2016-Aug-24 08:33N 35°38' E 139°46'2 1.7
2016-Aug-24 07:33N 35°37' E 139°46'2 2.0
2016-Aug-24 06:26N 35°39' E 139°46'0 0.0
2016-Aug-24 04:32N 35°39' E 139°46'0 0.0
2016-Aug-24 03:26N 35°39' E 139°46'0 0.0
2016-Aug-24 02:29N 35°39' E 139°46'0 0.0
2016-Aug-24 01:32N 35°39' E 139°46'0 0.0
2016-Aug-24 00:32N 35°39' E 139°46'0 0.0
2016-Aug-23 23:33N 35°39' E 139°46'4 3.9
2016-Aug-23 22:33N 35°35' E 139°47'2 1.8
2016-Aug-23 21:33N 35°34' E 139°49'3 3.4
2016-Aug-23 20:33N 35°36' E 139°46'2 2.4
2016-Aug-23 19:32N 35°39' E 139°46'0 0.0
2016-Aug-23 18:32N 35°39' E 139°46'0 0.0
2016-Aug-23 17:29N 35°39' E 139°46'0 0.0
2016-Aug-23 16:29N 35°39' E 139°46'0 0.0
2016-Aug-23 15:32N 35°39' E 139°46'0 0.0
2016-Aug-23 14:26N 35°39' E 139°46'0 0.0
2016-Aug-23 13:32N 35°39' E 139°46'0 0.0
2016-Aug-23 12:32N 35°39' E 139°46'0 0.0
2016-Aug-23 11:32N 35°39' E 139°46'0 0.0
2016-Aug-23 10:29N 35°39' E 139°46'0 0.0
2016-Aug-23 09:32N 35°39' E 139°46'4 4.5
2016-Aug-23 08:33N 35°35' E 139°48'1 1.2
2016-Aug-23 07:33N 35°35' E 139°47'3 2.7
2016-Aug-23 06:33N 35°34' E 139°49'2 2.0
2016-Aug-23 05:32N 35°32' E 139°48'4 4.2
2016-Aug-23 04:34N 35°36' E 139°47'3 3.0
2016-Aug-23 03:31N 35°39' E 139°46'0 0.0
2016-Aug-23 02:31N 35°39' E 139°46'0 0.0
2016-Aug-23 01:31N 35°39' E 139°46'0 0.0
2016-Aug-23 00:31N 35°39' E 139°46'0 0.0
2016-Aug-22 23:31N 35°39' E 139°46'0 0.0
2016-Aug-22 22:31N 35°39' E 139°46'0 0.0
2016-Aug-22 21:31N 35°39' E 139°46'0 0.0
2016-Aug-22 20:31N 35°39' E 139°46'0 0.0
2016-Aug-22 19:31N 35°39' E 139°46'0 0.0
2016-Aug-22 18:25N 35°39' E 139°46'0 0.0
2016-Aug-22 17:31N 35°39' E 139°46'0 0.0
2016-Aug-22 16:31N 35°39' E 139°46'0 0.0
2016-Aug-22 15:31N 35°39' E 139°46'0 0.0
2016-Aug-22 14:31N 35°39' E 139°46'0 0.0
2016-Aug-22 13:31N 35°39' E 139°46'0 0.0
2016-Aug-22 12:31N 35°39' E 139°46'0 0.0
2016-Aug-22 11:31N 35°39' E 139°46'0 0.0
2016-Aug-22 10:31N 35°39' E 139°46'0 0.0
2016-Aug-22 09:25N 35°39' E 139°46'1 0.7
2016-Aug-22 08:33N 35°39' E 139°46'1 0.7
2016-Aug-22 07:29N 35°38' E 139°47'0 0.0
2016-Aug-22 06:29N 35°38' E 139°47'0 0.0
2016-Aug-22 05:32N 35°38' E 139°47'0 0.0
2016-Aug-22 04:32N 35°38' E 139°47'0 0.0
2016-Aug-22 03:29N 35°38' E 139°47'0 0.0
2016-Aug-22 02:29N 35°38' E 139°47'0 0.0
2016-Aug-22 01:32N 35°38' E 139°47'0 0.0
2016-Aug-22 00:29N 35°38' E 139°47'0 0.0
2016-Aug-21 23:29N 35°38' E 139°47'0 0.0
2016-Aug-21 22:32N 35°38' E 139°47'2 2.3
2016-Aug-21 21:33N 35°36' E 139°47'7 6.6
2016-Aug-21 20:33N 35°31' E 139°52'8 7.4
2016-Aug-21 19:31N 35°36' E 139°46'0 0.2
2016-Aug-21 18:32N 35°36' E 139°46'0 0.5
2016-Aug-21 17:34N 35°37' E 139°46'2 2.0
2016-Aug-21 16:24N 35°39' E 139°46'0 0.0
2016-Aug-21 15:24N 35°39' E 139°46'0 0.0
2016-Aug-21 14:24N 35°39' E 139°46'0 0.0
2016-Aug-21 13:33N 35°39' E 139°46'0 0.0
2016-Aug-21 12:30N 35°39' E 139°46'0 0.0
2016-Aug-21 11:33N 35°39' E 139°46'3 2.3
2016-Aug-21 10:27N 35°36' E 139°46'1 1.4
2016-Aug-21 09:33N 35°35' E 139°47'1 0.5
2016-Aug-21 08:33N 35°35' E 139°47'0 0.0
2016-Aug-21 07:33N 35°35' E 139°47'1 1.3
2016-Aug-21 06:34N 35°37' E 139°47'2 2.3
2016-Aug-21 05:33N 35°39' E 139°46'0 0.0
2016-Aug-21 04:33N 35°39' E 139°46'0 0.0
2016-Aug-21 03:30N 35°39' E 139°46'0 0.0
2016-Aug-21 02:27N 35°39' E 139°46'0 0.0
2016-Aug-21 01:33N 35°39' E 139°46'0 0.0
2016-Aug-21 00:30N 35°39' E 139°46'0 0.0
2016-Aug-20 23:30N 35°39' E 139°46'0 0.0
2016-Aug-20 22:30N 35°39' E 139°46'0 0.0
2016-Aug-20 21:33N 35°39' E 139°46'0 0.0
2016-Aug-20 20:30N 35°39' E 139°46'0 0.0
2016-Aug-20 19:33N 35°39' E 139°46'0 0.0
2016-Aug-20 18:30N 35°39' E 139°46'0 0.0
2016-Aug-20 17:33N 35°39' E 139°46'0 0.0
2016-Aug-20 16:33N 35°39' E 139°46'  
Track history (hours):
 
Tides and Currents Weather Stations Pressure Air Temp Water Temp Dewpoint Dewpoint Depression Visibility Wind Speed Wind Dir Waves Ship Positions

Fuji Maru

Last reported at 2016-Aug-30 16:33 UTC. Time now 2016-Aug-30 17:04 UTC.
Position N 35°39' E 139°46'.

Length 38 m; draft 4.4 m.

Type: Tug. MMSI: 431001102.

Date/timePositionNaut miles runAvg speedWind from/ knotsBaromVisibWave heightAir tempDewpointWater temp
2016-Aug-30 16:33N 35°39' E 139°46'0 0.0
2016-Aug-30 15:27N 35°39' E 139°46'0 0.0
2016-Aug-30 14:27N 35°39' E 139°46'0 0.0
2016-Aug-30 13:33N 35°39' E 139°46'0 0.0
2016-Aug-30 12:33N 35°39' E 139°46'0 0.0
2016-Aug-30 11:33N 35°39' E 139°46'0 0.0
2016-Aug-30 10:33N 35°39' E 139°46'0 0.0
2016-Aug-30 09:27N 35°39' E 139°46'0 0.0
2016-Aug-30 08:27N 35°39' E 139°46'0 0.0
2016-Aug-30 07:33N 35°39' E 139°46'0 0.0
2016-Aug-30 06:33N 35°39' E 139°46'0 0.0
2016-Aug-30 05:27N 35°39' E 139°46'1 1.0
2016-Aug-30 04:32N 35°39' E 139°47'1 0.7
2016-Aug-30 03:18N 35°39' E 139°46'0 0.0
2016-Aug-30 02:33N 35°39' E 139°46'0 0.0
2016-Aug-30 01:27N 35°39' E 139°46'0 0.0
2016-Aug-30 00:27N 35°39' E 139°46'0 0.1
2016-Aug-29 23:15N 35°39' E 139°46'0 0.1
2016-Aug-29 22:24N 35°39' E 139°46'0 0.0
2016-Aug-29 21:21N 35°39' E 139°46'0 0.0
2016-Aug-29 20:33N 35°39' E 139°46'0 0.0
2016-Aug-29 19:30N 35°39' E 139°46'0 0.0
2016-Aug-29 18:24N 35°39' E 139°46'0 0.0
2016-Aug-29 17:33N 35°39' E 139°46'0 0.0
2016-Aug-29 16:30N 35°39' E 139°46'0 0.0
2016-Aug-29 15:33N 35°39' E 139°46'0 0.0
2016-Aug-29 14:33N 35°39' E 139°46'0 0.0
2016-Aug-29 13:30N 35°39' E 139°46'0 0.0
2016-Aug-29 12:30N 35°39' E 139°46'0 0.0
2016-Aug-29 11:30N 35°39' E 139°46'0 0.0
2016-Aug-29 10:33N 35°39' E 139°46'0 0.0
2016-Aug-29 09:33N 35°39' E 139°46'0 0.0
2016-Aug-29 08:33N 35°39' E 139°46'0 0.0
2016-Aug-29 07:21N 35°39' E 139°46'0 0.1
2016-Aug-29 06:33N 35°39' E 139°46'0 0.0
2016-Aug-29 05:33N 35°39' E 139°46'0 0.0
2016-Aug-29 04:30N 35°39' E 139°46'0 0.0
2016-Aug-29 03:33N 35°39' E 139°46'0 0.0
2016-Aug-29 02:33N 35°39' E 139°46'0 0.0
2016-Aug-29 01:31N 35°39' E 139°46'0 0.0
2016-Aug-29 00:31N 35°39' E 139°46'3 2.7
2016-Aug-28 23:30N 35°36' E 139°46'1 1.2
2016-Aug-28 22:33N 35°35' E 139°47'3 3.3
2016-Aug-28 21:33N 35°33' E 139°51'4 4.1
2016-Aug-28 20:33N 35°36' E 139°47'2 2.0
2016-Aug-28 19:33N 35°38' E 139°46'1 1.2
2016-Aug-28 18:33N 35°37' E 139°46'2 2.1
2016-Aug-28 17:33N 35°39' E 139°46'0 0.0
2016-Aug-28 16:33N 35°39' E 139°46'0 0.0
2016-Aug-28 15:33N 35°39' E 139°46'0 0.0
2016-Aug-28 14:33N 35°39' E 139°46'0 0.0
2016-Aug-28 13:33N 35°39' E 139°46'0 0.0
2016-Aug-28 12:33N 35°39' E 139°46'0 0.0
2016-Aug-28 11:33N 35°39' E 139°46'0 0.0
2016-Aug-28 10:33N 35°39' E 139°46'0 0.0
2016-Aug-28 09:33N 35°39' E 139°46'0 0.0
2016-Aug-28 08:33N 35°39' E 139°46'0 0.0
2016-Aug-28 07:33N 35°39' E 139°46'0 0.0
2016-Aug-28 06:33N 35°39' E 139°46'0 0.0
2016-Aug-28 05:30N 35°39' E 139°46'0 0.0
2016-Aug-28 04:33N 35°39' E 139°46'0 0.0
2016-Aug-28 03:33N 35°39' E 139°46'0 0.0
2016-Aug-28 02:33N 35°39' E 139°46'0 0.0
2016-Aug-28 01:27N 35°39' E 139°46'0 0.1
2016-Aug-28 00:33N 35°39' E 139°46'0 0.0
2016-Aug-27 23:33N 35°39' E 139°46'0 0.0
2016-Aug-27 22:33N 35°39' E 139°46'0 0.0
2016-Aug-27 21:33N 35°39' E 139°46'0 0.0
2016-Aug-27 20:30N 35°39' E 139°46'0 0.0
2016-Aug-27 19:33N 35°39' E 139°46'0 0.0
2016-Aug-27 18:33N 35°39' E 139°46'0 0.0
2016-Aug-27 17:33N 35°39' E 139°46'0 0.0
2016-Aug-27 16:33N 35°39' E 139°46'0 0.0
2016-Aug-27 15:33N 35°39' E 139°46'0 0.0
2016-Aug-27 14:33N 35°39' E 139°46'0 0.0
2016-Aug-27 13:33N 35°39' E 139°46'0 0.0
2016-Aug-27 12:30N 35°39' E 139°46'0 0.0
2016-Aug-27 11:30N 35°39' E 139°46'0 0.0
2016-Aug-27 10:33N 35°39' E 139°46'0 0.0
2016-Aug-27 09:33N 35°39' E 139°46'0 0.0
2016-Aug-27 08:33N 35°39' E 139°46'0 0.0
2016-Aug-27 07:33N 35°39' E 139°46'0 0.0
2016-Aug-27 06:33N 35°39' E 139°46'0 0.0
2016-Aug-27 04:33N 35°39' E 139°46'0 0.0
2016-Aug-27 03:27N 35°39' E 139°46'0 0.0
2016-Aug-27 02:33N 35°39' E 139°46'0 0.0
2016-Aug-27 01:30N 35°39' E 139°46'0 0.0
2016-Aug-27 00:33N 35°39' E 139°46'0 0.0
2016-Aug-26 23:33N 35°39' E 139°46'0 0.0
2016-Aug-26 22:30N 35°39' E 139°46'0 0.0
2016-Aug-26 21:33N 35°39' E 139°46'0 0.0
2016-Aug-26 20:33N 35°39' E 139°46'0 0.0
2016-Aug-26 19:33N 35°39' E 139°46'0 0.0
2016-Aug-26 18:33N 35°39' E 139°46'3 2.6
2016-Aug-26 17:33N 35°36' E 139°46'2 1.8
2016-Aug-26 16:33N 35°38' E 139°46'0 0.0
2016-Aug-26 15:33N 35°38' E 139°46'0 0.0
2016-Aug-26 14:27N 35°38' E 139°46'2 1.7
2016-Aug-26 13:32N 35°37' E 139°47'1 1.3
2016-Aug-26 12:33N 35°35' E 139°47'0 0.0
2016-Aug-26 11:33N 35°35' E 139°47'0 0.0
2016-Aug-26 10:33N 35°35' E 139°47'1 1.0
2016-Aug-26 09:33N 35°36' E 139°47'3 2.7
2016-Aug-26 08:33N 35°39' E 139°46'0 0.0
2016-Aug-26 07:33N 35°39' E 139°46'0 0.0
2016-Aug-26 06:30N 35°39' E 139°46'0 0.0
2016-Aug-26 04:33N 35°39' E 139°46'0 0.0
2016-Aug-26 03:33N 35°39' E 139°46'0 0.0
2016-Aug-26 02:33N 35°39' E 139°46'0 0.0
2016-Aug-26 01:33N 35°39' E 139°46'0 0.0
2016-Aug-26 00:33N 35°39' E 139°46'1 0.7
2016-Aug-25 23:31N 35°39' E 139°47'2 1.8
2016-Aug-25 22:33N 35°37' E 139°46'4 3.9
2016-Aug-25 21:31N 35°34' E 139°49'2 2.5
2016-Aug-25 20:32N 35°35' E 139°47'1 1.1
2016-Aug-25 19:33N 35°36' E 139°46'2 2.4
2016-Aug-25 18:31N 35°39' E 139°46'0 0.0
2016-Aug-25 17:31N 35°39' E 139°46'0 0.0
2016-Aug-25 16:31N 35°39' E 139°46'0 0.0
2016-Aug-25 15:31N 35°39' E 139°46'0 0.0
2016-Aug-25 14:31N 35°39' E 139°46'0 0.0
2016-Aug-25 13:31N 35°39' E 139°46'0 0.0
2016-Aug-25 12:31N 35°39' E 139°46'0 0.0
2016-Aug-25 11:31N 35°39' E 139°46'0 0.0
2016-Aug-25 10:31N 35°39' E 139°46'0 0.0
2016-Aug-25 09:31N 35°39' E 139°46'0 0.0
2016-Aug-25 08:31N 35°39' E 139°46'0 0.0
2016-Aug-25 07:31N 35°39' E 139°46'0 0.0
2016-Aug-25 06:28N 35°39' E 139°46'0 0.0
2016-Aug-25 04:28N 35°39' E 139°46'1 1.1
2016-Aug-25 03:33N 35°38' E 139°46'5 4.7
2016-Aug-25 02:34N 35°34' E 139°49'3 2.5
2016-Aug-25 01:28N 35°36' E 139°47'0 0.0
2016-Aug-25 00:31N 35°36' E 139°47'0 0.0
2016-Aug-24 23:34N 35°36' E 139°47'0 0.4
2016-Aug-24 22:33N 35°36' E 139°47'2 2.4
2016-Aug-24 21:33N 35°34' E 139°49'5 5.1
2016-Aug-24 20:33N 35°39' E 139°46'0 0.0
2016-Aug-24 19:33N 35°39' E 139°46'0 0.0
2016-Aug-24 18:33N 35°39' E 139°46'0 0.0
2016-Aug-24 17:30N 35°39' E 139°46'0 0.0
2016-Aug-24 16:33N 35°39' E 139°46'0 0.0
2016-Aug-24 15:33N 35°39' E 139°46'0 0.0
2016-Aug-24 14:33N 35°39' E 139°46'0 0.0
2016-Aug-24 13:24N 35°39' E 139°46'0 0.0
2016-Aug-24 12:30N 35°39' E 139°46'0 0.0
2016-Aug-24 11:33N 35°39' E 139°46'0 0.0
2016-Aug-24 10:24N 35°39' E 139°46'2 2.5
2016-Aug-24 09:32N 35°37' E 139°46'2 1.7
2016-Aug-24 08:33N 35°38' E 139°46'2 1.7
2016-Aug-24 07:33N 35°37' E 139°46'2 2.0
2016-Aug-24 06:26N 35°39' E 139°46'0 0.0
2016-Aug-24 04:32N 35°39' E 139°46'0 0.0
2016-Aug-24 03:26N 35°39' E 139°46'0 0.0
2016-Aug-24 02:29N 35°39' E 139°46'0 0.0
2016-Aug-24 01:32N 35°39' E 139°46'0 0.0
2016-Aug-24 00:32N 35°39' E 139°46'0 0.0
2016-Aug-23 23:33N 35°39' E 139°46'4 3.9
2016-Aug-23 22:33N 35°35' E 139°47'2 1.8
2016-Aug-23 21:33N 35°34' E 139°49'3 3.4
2016-Aug-23 20:33N 35°36' E 139°46'2 2.4
2016-Aug-23 19:32N 35°39' E 139°46'0 0.0
2016-Aug-23 18:32N 35°39' E 139°46'0 0.0
2016-Aug-23 17:29N 35°39' E 139°46'0 0.0
2016-Aug-23 16:29N 35°39' E 139°46'0 0.0
2016-Aug-23 15:32N 35°39' E 139°46'0 0.0
2016-Aug-23 14:26N 35°39' E 139°46'0 0.0
2016-Aug-23 13:32N 35°39' E 139°46'0 0.0
2016-Aug-23 12:32N 35°39' E 139°46'0 0.0
2016-Aug-23 11:32N 35°39' E 139°46'0 0.0
2016-Aug-23 10:29N 35°39' E 139°46'0 0.0
2016-Aug-23 09:32N 35°39' E 139°46'4 4.5
2016-Aug-23 08:33N 35°35' E 139°48'1 1.2
2016-Aug-23 07:33N 35°35' E 139°47'3 2.7
2016-Aug-23 06:33N 35°34' E 139°49'2 2.0
2016-Aug-23 05:32N 35°32' E 139°48'4 4.2
2016-Aug-23 04:34N 35°36' E 139°47'3 3.0
2016-Aug-23 03:31N 35°39' E 139°46'0 0.0
2016-Aug-23 02:31N 35°39' E 139°46'0 0.0
2016-Aug-23 01:31N 35°39' E 139°46'0 0.0
2016-Aug-23 00:31N 35°39' E 139°46'0 0.0
2016-Aug-22 23:31N 35°39' E 139°46'0 0.0
2016-Aug-22 22:31N 35°39' E 139°46'0 0.0
2016-Aug-22 21:31N 35°39' E 139°46'0 0.0
2016-Aug-22 20:31N 35°39' E 139°46'0 0.0
2016-Aug-22 19:31N 35°39' E 139°46'0 0.0
2016-Aug-22 18:25N 35°39' E 139°46'0 0.0
2016-Aug-22 17:31N 35°39' E 139°46'0 0.0
2016-Aug-22 16:31N 35°39' E 139°46'0 0.0
2016-Aug-22 15:31N 35°39' E 139°46'0 0.0
2016-Aug-22 14:31N 35°39' E 139°46'0 0.0
2016-Aug-22 13:31N 35°39' E 139°46'0 0.0
2016-Aug-22 12:31N 35°39' E 139°46'0 0.0
2016-Aug-22 11:31N 35°39' E 139°46'0 0.0
2016-Aug-22 10:31N 35°39' E 139°46'0 0.0
2016-Aug-22 09:25N 35°39' E 139°46'1 0.7
2016-Aug-22 08:33N 35°39' E 139°46'1 0.7
2016-Aug-22 07:29N 35°38' E 139°47'0 0.0
2016-Aug-22 06:29N 35°38' E 139°47'0 0.0
2016-Aug-22 05:32N 35°38' E 139°47'0 0.0
2016-Aug-22 04:32N 35°38' E 139°47'0 0.0
2016-Aug-22 03:29N 35°38' E 139°47'0 0.0
2016-Aug-22 02:29N 35°38' E 139°47'0 0.0
2016-Aug-22 01:32N 35°38' E 139°47'0 0.0
2016-Aug-22 00:29N 35°38' E 139°47'0 0.0
2016-Aug-21 23:29N 35°38' E 139°47'0 0.0
2016-Aug-21 22:32N 35°38' E 139°47'2 2.3
2016-Aug-21 21:33N 35°36' E 139°47'7 6.6
2016-Aug-21 20:33N 35°31' E 139°52'8 7.4
2016-Aug-21 19:31N 35°36' E 139°46'0 0.2
2016-Aug-21 18:32N 35°36' E 139°46'0 0.5
2016-Aug-21 17:34N 35°37' E 139°46'2 2.0
2016-Aug-21 16:24N 35°39' E 139°46'0 0.0
2016-Aug-21 15:24N 35°39' E 139°46'0 0.0
2016-Aug-21 14:24N 35°39' E 139°46'0 0.0
2016-Aug-21 13:33N 35°39' E 139°46'0 0.0
2016-Aug-21 12:30N 35°39' E 139°46'0 0.0
2016-Aug-21 11:33N 35°39' E 139°46'3 2.3
2016-Aug-21 10:27N 35°36' E 139°46'1 1.4
2016-Aug-21 09:33N 35°35' E 139°47'1 0.5
2016-Aug-21 08:33N 35°35' E 139°47'0 0.0
2016-Aug-21 07:33N 35°35' E 139°47'1 1.3
2016-Aug-21 06:34N 35°37' E 139°47'2 2.3
2016-Aug-21 05:33N 35°39' E 139°46'0 0.0
2016-Aug-21 04:33N 35°39' E 139°46'0 0.0
2016-Aug-21 03:30N 35°39' E 139°46'0 0.0
2016-Aug-21 02:27N 35°39' E 139°46'0 0.0
2016-Aug-21 01:33N 35°39' E 139°46'0 0.0
2016-Aug-21 00:30N 35°39' E 139°46'0 0.0
2016-Aug-20 23:30N 35°39' E 139°46'0 0.0
2016-Aug-20 22:30N 35°39' E 139°46'0 0.0
2016-Aug-20 21:33N 35°39' E 139°46'0 0.0
2016-Aug-20 20:30N 35°39' E 139°46'0 0.0
2016-Aug-20 19:33N 35°39' E 139°46'0 0.0
2016-Aug-20 18:30N 35°39' E 139°46'0 0.0
2016-Aug-20 17:33N 35°39' E 139°46'0 0.0
2016-Aug-20 16:33N 35°39' E 139°46'  

Dump ship's entire track history